Time;durP1;ratioP1;P1;durP2;ratioP2;P2;SDS_P1;SDS_P2;PMS_P1;PMS_P2;Temp;Humidity;BMP_temperature;BMP_pressure;BME280_temperature;BME280_humidity;BME280_pressure;Samples;Min_cycle;Max_cycle;Signal;HPM_P1;HPM_P2
2023/03/02 10:12:07;;;;;;;32.83;29.83;;;12.80;82.70;;;;;;5147420;27;21012;-75
2023/03/02 10:14:38;;;;;;;30.27;27.63;;;15.80;70.90;;;;;;5126925;28;20444;-76
2023/03/02 10:17:27;;;;;;;31.33;28.00;;;16.10;70.30;;;;;;5126581;28;20453;-76
2023/03/02 10:20:00;;;;;;;27.73;25.63;;;16.60;69.60;;;;;;5126934;28;20911;-77
2023/03/02 10:22:32;;;;;;;30.93;28.20;;;17.30;66.40;;;;;;5126924;28;20957;-77
2023/03/02 10:25:13;;;;;;;30.70;28.00;;;16.70;68.10;;;;;;5126765;28;21004;-76
2023/03/02 10:27:49;;;;;;;30.57;28.17;;;16.60;67.60;;;;;;5126649;28;20493;-77
2023/03/02 10:30:21;;;;;;;29.40;27.00;;;17.40;65.40;;;;;;5126681;28;20549;-77
2023/03/02 10:32:50;;;;;;;30.70;28.17;;;18.20;63.10;;;;;;5126465;28;20459;-77
2023/03/02 10:35:19;;;;;;;30.80;28.23;;;17.70;62.20;;;;;;5126524;28;20444;-77
2023/03/02 10:37:46;;;;;;;31.00;28.40;;;17.80;62.80;;;;;;5126261;27;20451;-78
2023/03/02 10:40:28;;;;;;;30.80;28.20;;;17.90;62.90;;;;;;5126659;28;20467;-77
2023/03/02 10:42:58;;;;;;;29.23;26.83;;;18.60;60.30;;;;;;5126638;28;20440;-77
2023/03/02 10:45:28;;;;;;;30.90;27.90;;;17.80;60.70;;;;;;5126505;28;20444;-77
2023/03/02 10:48:02;;;;;;;31.23;28.57;;;17.60;60.70;;;;;;5126418;28;20440;-77
2023/03/02 10:50:30;;;;;;;29.33;27.00;;;17.30;62.50;;;;;;5126223;28;20533;-77
2023/03/02 10:52:57;;;;;;;32.33;29.33;;;17.30;62.00;;;;;;5126519;27;20532;-76
2023/03/02 10:55:23;;;;;;;30.80;27.90;;;17.20;61.90;;;;;;5126248;28;20444;-77
2023/03/02 10:58:01;;;;;;;31.53;28.53;;;17.20;61.90;;;;;;5126360;28;20556;-75
2023/03/02 11:00:30;;;;;;;30.63;27.97;;;16.80;62.40;;;;;;5126297;28;20443;-77
2023/03/02 11:02:58;;;;;;;30.40;27.70;;;17.10;63.00;;;;;;5126557;28;20447;-77
2023/03/02 11:05:31;;;;;;;29.70;27.33;;;17.40;62.90;;;;;;5126334;28;20947;-77
2023/03/02 11:08:00;;;;;;;31.97;29.27;;;18.50;59.60;;;;;;5126277;28;20472;-77
2023/03/02 11:10:30;;;;;;;29.10;26.60;;;18.00;60.10;;;;;;5125133;28;20499;-76
2023/03/02 11:12:58;;;;;;;30.30;28.00;;;18.70;59.20;;;;;;5112557;28;20453;-75
2023/03/02 11:15:33;;;;;;;30.87;28.00;;;19.10;59.00;;;;;;5112347;28;20916;-76
2023/03/02 11:18:07;;;;;;;30.43;27.67;;;19.40;57.10;;;;;;5112749;28;20448;-76
2023/03/02 11:20:38;;;;;;;31.80;28.93;;;19.60;57.00;;;;;;5112303;28;20539;-76
2023/03/02 11:23:18;;;;;;;30.10;27.67;;;19.70;56.30;;;;;;5112173;28;20526;-76
2023/03/02 11:25:50;;;;;;;30.93;28.33;;;19.10;56.60;;;;;;5112351;28;20448;-76
2023/03/02 11:28:38;;;;;;;30.83;28.13;;;19.30;57.10;;;;;;5112443;28;20449;-77
2023/03/02 11:31:15;;;;;;;30.70;28.30;;;19.80;56.40;;;;;;5112034;28;21297;-76
2023/03/02 11:33:51;;;;;;;29.97;27.43;;;19.40;55.60;;;;;;5112365;28;20445;-75
2023/03/02 11:36:23;;;;;;;31.17;28.47;;;18.70;56.40;;;;;;5112081;28;20506;-76
2023/03/02 11:38:53;;;;;;;28.73;26.33;;;18.30;57.80;;;;;;5112058;28;20513;-76
2023/03/02 11:41:32;;;;;;;29.07;26.60;;;18.40;58.10;;;;;;5112095;28;20448;-76
2023/03/02 11:44:01;;;;;;;31.10;28.03;;;19.10;56.70;;;;;;5112293;28;20449;-76
2023/03/02 11:46:32;;;;;;;31.70;28.80;;;18.40;56.30;;;;;;5111938;28;20510;-76
2023/03/02 11:49:03;;;;;;;28.80;26.50;;;18.00;57.50;;;;;;5111955;28;20790;-76
2023/03/02 11:51:33;;;;;;;29.23;26.83;;;18.60;57.90;;;;;;5112071;28;20561;-76
2023/03/02 11:54:03;;;;;;;28.80;26.23;;;19.50;56.70;;;;;;5111945;28;20464;-77
2023/03/02 11:56:33;;;;;;;31.60;29.10;;;19.00;55.40;;;;;;5112223;28;20449;-76
2023/03/02 11:59:03;;;;;;;31.53;28.87;;;18.50;58.10;;;;;;5112018;28;20457;-76
2023/03/02 12:01:33;;;;;;;29.77;27.37;;;18.80;55.90;;;;;;5111985;28;20437;-76
2023/03/02 12:04:07;;;;;;;28.37;26.27;;;18.00;57.90;;;;;;5111764;28;20791;-76
2023/03/02 12:06:39;;;;;;;29.90;27.47;;;18.40;57.10;;;;;;5111612;28;20457;-75
2023/03/02 12:09:29;;;;;;;32.10;29.10;;;18.70;57.00;;;;;;5111154;28;20441;-76
2023/03/02 12:11:59;;;;;;;31.03;28.23;;;18.50;57.20;;;;;;5111623;28;20448;-76
2023/03/02 12:14:29;;;;;;;32.07;29.10;;;19.00;56.20;;;;;;5111646;28;20445;-76
2023/03/02 12:17:19;;;;;;;30.03;27.43;;;18.80;57.10;;;;;;5111667;28;20437;-76
2023/03/02 12:19:47;;;;;;;31.03;28.53;;;18.80;57.10;;;;;;5110705;28;20816;-76
2023/03/02 12:22:24;;;;;;;32.17;29.20;;;19.00;57.10;;;;;;5110600;28;20457;-76
2023/03/02 12:25:00;;;;;;;30.50;28.10;;;19.30;56.10;;;;;;5110315;28;20452;-76
2023/03/02 12:27:35;;;;;;;29.57;26.87;;;20.10;55.90;;;;;;5110760;28;20953;-76
2023/03/02 12:30:23;;;;;;;30.27;27.67;;;20.80;54.00;;;;;;5110424;28;20875;-76
2023/03/02 12:33:05;;;;;;;28.53;26.13;;;20.10;53.50;;;;;;5110678;28;20872;-76
2023/03/02 12:35:34;;;;;;;29.40;26.70;;;20.20;54.40;;;;;;5110542;28;20437;-75
2023/03/02 12:38:04;;;;;;;31.70;29.00;;;20.80;54.00;;;;;;5110412;28;20526;-76
2023/03/02 12:40:52;;;;;;;31.20;28.80;;;21.20;52.90;;;;;;5110580;28;20540;-76
2023/03/02 12:43:31;;;;;;;30.50;28.07;;;21.20;52.50;;;;;;5110491;28;20834;-76
2023/03/02 12:46:27;;;;;;;29.20;26.73;;;20.60;52.60;;;;;;5110426;28;20440;-76
2023/03/02 12:49:27;;;;;;;28.73;26.23;;;20.10;53.30;;;;;;5108439;28;20453;-76
2023/03/02 12:51:57;;;;;;;27.63;25.63;;;20.10;54.20;;;;;;5110291;28;20822;-76
2023/03/02 12:54:25;;;;;;;28.80;26.30;;;20.10;53.40;;;;;;5110307;28;20449;-76
2023/03/02 12:57:05;;;;;;;30.53;28.10;;;19.50;54.50;;;;;;5110361;28;20449;-75
2023/03/02 12:59:32;;;;;;;30.33;28.17;;;19.70;54.60;;;;;;5110246;28;20453;-76
2023/03/02 13:02:21;;;;;;;29.93;27.63;;;20.00;55.00;;;;;;5110587;28;21165;-76
2023/03/02 13:04:55;;;;;;;28.53;26.23;;;20.60;53.20;;;;;;5105977;28;20457;-76
2023/03/02 13:07:26;;;;;;;30.63;28.03;;;20.00;54.30;;;;;;5110322;28;20480;-75
2023/03/02 13:09:55;;;;;;;29.20;26.90;;;18.60;55.50;;;;;;5109947;28;20778;-76
2023/03/02 13:12:21;;;;;;;28.63;25.73;;;18.50;56.60;;;;;;5110043;28;21003;-75
2023/03/02 13:14:54;;;;;;;29.07;26.57;;;19.10;55.90;;;;;;5110136;28;20931;-75
2023/03/02 13:17:24;;;;;;;29.17;26.57;;;18.90;55.90;;;;;;5110311;28;20526;-75
2023/03/02 13:19:51;;;;;;;27.97;25.77;;;18.60;56.80;;;;;;5110079;28;20460;-75
2023/03/02 13:22:22;;;;;;;27.93;25.50;;;18.60;56.30;;;;;;5110038;28;20457;-76
2023/03/02 13:24:54;;;;;;;27.40;25.00;;;18.40;57.40;;;;;;5109987;28;20540;-75
2023/03/02 13:27:22;;;;;;;29.07;26.47;;;18.30;56.80;;;;;;5109809;28;20440;-75
2023/03/02 13:29:50;;;;;;;26.40;24.20;;;17.90;57.60;;;;;;5109626;28;20506;-75
2023/03/02 13:32:20;;;;;;;25.30;23.20;;;18.60;57.50;;;;;;5109710;28;20510;-75
2023/03/02 13:34:49;;;;;;;28.50;26.10;;;18.10;56.80;;;;;;5109335;28;20535;-75
2023/03/02 13:37:22;;;;;;;26.67;24.57;;;17.50;57.90;;;;;;5109338;28;20499;-75
2023/03/02 13:39:57;;;;;;;25.10;23.33;;;17.90;58.30;;;;;;5109302;28;20450;-75
2023/03/02 13:42:29;;;;;;;26.53;24.43;;;18.20;57.30;;;;;;5109289;28;20448;-76
2023/03/02 13:44:56;;;;;;;28.63;26.33;;;18.50;57.30;;;;;;5109498;28;20441;-76
2023/03/02 13:47:24;;;;;;;27.80;25.60;;;18.70;56.10;;;;;;5109274;28;20501;-75
2023/03/02 13:49:51;;;;;;;27.73;25.43;;;17.30;57.90;;;;;;5109344;28;20449;-75
2023/03/02 13:52:26;;;;;;;26.17;23.57;;;16.20;59.90;;;;;;5109185;28;20449;-75
2023/03/02 13:54:53;;;;;;;25.07;23.13;;;15.30;62.50;;;;;;5109093;28;20506;-75
2023/03/02 13:57:28;;;;;;;25.53;23.33;;;14.60;64.70;;;;;;5109189;28;20553;-75
2023/03/02 13:59:55;;;;;;;24.63;22.40;;;14.10;67.10;;;;;;5109118;28;20453;-75
2023/03/02 14:02:24;;;;;;;28.40;25.87;;;13.70;69.00;;;;;;5108665;28;20518;-75
2023/03/02 14:04:51;;;;;;;30.90;27.90;;;13.40;70.10;;;;;;5109068;28;20447;-75
2023/03/02 14:07:18;;;;;;;30.70;27.57;;;13.00;72.50;;;;;;5108906;28;20470;-75
2023/03/02 14:09:46;;;;;;;30.33;27.63;;;12.70;74.60;;;;;;5109205;28;20577;-75
2023/03/02 14:12:22;;;;;;;29.47;26.67;;;12.50;75.50;;;;;;5109164;28;20569;-74
2023/03/02 14:14:49;;;;;;;27.77;25.17;;;12.20;77.00;;;;;;5109402;28;20645;-76
2023/03/02 14:17:20;;;;;;;27.67;25.17;;;12.10;78.40;;;;;;5109255;28;20557;-76
2023/03/02 14:19:51;;;;;;;29.13;26.17;;;12.10;79.50;;;;;;5109437;28;20445;-75
2023/03/02 14:22:18;;;;;;;29.00;25.90;;;12.00;80.50;;;;;;5108961;28;20529;-75
2023/03/02 14:24:46;;;;;;;27.57;24.83;;;12.00;80.90;;;;;;5109134;28;21000;-75
2023/03/02 14:27:14;;;;;;;28.53;25.63;;;12.00;81.60;;;;;;5109276;28;20473;-76
2023/03/02 14:29:41;;;;;;;29.10;26.40;;;12.00;81.70;;;;;;5109163;28;20521;-75
2023/03/02 14:32:10;;;;;;;26.30;23.70;;;12.00;82.30;;;;;;5108702;28;20558;-75
2023/03/02 14:34:38;;;;;;;28.07;25.20;;;12.10;83.30;;;;;;5108803;28;20456;-76
2023/03/02 14:37:08;;;;;;;27.90;24.93;;;12.00;82.60;;;;;;5108521;28;20445;-75
2023/03/02 14:39:37;;;;;;;28.33;25.30;;;12.10;82.90;;;;;;5108649;28;20501;-75
2023/03/02 14:42:10;;;;;;;28.30;25.70;;;12.10;82.80;;;;;;5108699;28;20449;-76
2023/03/02 14:44:37;;;;;;;25.17;22.83;;;12.10;83.10;;;;;;5108587;28;20461;-74
2023/03/02 14:47:04;;;;;;;26.70;23.40;;;12.00;83.60;;;;;;5110931;28;20465;-76
2023/03/02 14:49:31;;;;;;;26.40;24.00;;;12.00;84.30;;;;;;5112443;28;20449;-75
2023/03/02 14:52:04;;;;;;;29.23;26.20;;;12.00;83.90;;;;;;5112452;28;20473;-75
2023/03/02 14:54:37;;;;;;;27.60;25.10;;;12.10;83.70;;;;;;5112621;28;20445;-75
2023/03/02 14:57:05;;;;;;;27.30;24.73;;;12.10;83.70;;;;;;5112686;28;20449;-75
2023/03/02 14:59:33;;;;;;;28.43;25.77;;;11.90;84.10;;;;;;5112562;28;20449;-76
2023/03/02 15:01:59;;;;;;;27.47;24.77;;;11.90;84.90;;;;;;5112787;28;20502;-75
2023/03/02 15:04:26;;;;;;;26.90;24.13;;;11.90;84.90;;;;;;5112918;28;20445;-75
2023/03/02 15:06:53;;;;;;;28.30;25.53;;;11.80;85.30;;;;;;5112402;28;20445;-75
2023/03/02 15:09:20;;;;;;;28.80;26.13;;;11.80;85.60;;;;;;5112510;28;21014;-75
2023/03/02 15:11:47;;;;;;;26.90;24.30;;;11.70;85.60;;;;;;5112444;28;20557;-75
2023/03/02 15:14:13;;;;;;;28.77;25.77;;;11.70;86.10;;;;;;5112738;28;20480;-75
2023/03/02 15:16:41;;;;;;;28.43;25.53;;;11.70;86.20;;;;;;5110690;28;20491;-75
2023/03/02 15:19:08;;;;;;;30.00;23.63;;;11.60;87.20;;;;;;5112532;28;20450;-76
2023/03/02 15:21:35;;;;;;;28.17;24.87;;;11.60;87.60;;;;;;5112718;28;20457;-76
2023/03/02 15:24:01;;;;;;;29.33;26.23;;;11.60;87.60;;;;;;5112318;28;20457;-75
2023/03/02 15:26:28;;;;;;;31.13;27.97;;;11.60;87.40;;;;;;5112560;28;20836;-76
2023/03/02 15:28:55;;;;;;;30.50;26.93;;;11.60;87.90;;;;;;5112569;28;20449;-76
2023/03/02 15:31:22;;;;;;;26.97;24.23;;;11.60;88.60;;;;;;5112304;28;20488;-76
2023/03/02 15:33:50;;;;;;;28.03;25.00;;;11.50;88.20;;;;;;5112288;28;20446;-75
2023/03/02 15:36:17;;;;;;;28.60;25.77;;;11.40;88.70;;;;;;5111921;28;20988;-75
2023/03/02 15:38:44;;;;;;;28.03;25.20;;;11.40;89.40;;;;;;5112256;28;20465;-75
2023/03/02 15:41:13;;;;;;;26.87;24.30;;;11.40;89.80;;;;;;5112274;28;20442;-75
2023/03/02 15:43:40;;;;;;;26.17;23.83;;;11.40;90.00;;;;;;5112318;28;20457;-75
2023/03/02 15:46:08;;;;;;;31.70;25.73;;;11.30;90.10;;;;;;5111762;28;20446;-75
2023/03/02 15:48:35;;;;;;;27.43;24.63;;;11.20;90.30;;;;;;5111844;28;20453;-75
2023/03/02 15:51:06;;;;;;;25.90;23.40;;;11.10;90.50;;;;;;5111734;28;20469;-75
2023/03/02 15:53:34;;;;;;;29.07;26.23;;;11.10;90.70;;;;;;5111646;28;20446;-75
2023/03/02 15:56:04;;;;;;;27.57;22.43;;;11.00;91.00;;;;;;5111313;28;20453;-75
2023/03/02 15:58:31;;;;;;;28.27;25.37;;;10.90;91.40;;;;;;5111405;28;20446;-76
2023/03/02 16:00:58;;;;;;;29.60;26.70;;;10.80;91.60;;;;;;5111795;28;20837;-76
2023/03/02 16:03:24;;;;;;;29.50;26.60;;;10.80;91.70;;;;;;5111513;28;20514;-75
2023/03/02 16:05:51;;;;;;;27.20;24.70;;;10.70;91.90;;;;;;5111150;28;20453;-76
2023/03/02 16:08:19;;;;;;;28.53;25.60;;;10.70;92.30;;;;;;5111019;28;20888;-75
2023/03/02 16:10:55;;;;;;;28.00;25.17;;;10.60;92.30;;;;;;5111290;28;20485;-74
2023/03/02 16:13:22;;;;;;;27.57;24.73;;;10.50;92.60;;;;;;5111852;28;20506;-74
2023/03/02 16:15:49;;;;;;;28.33;25.20;;;10.50;93.10;;;;;;5111538;28;20448;-76
2023/03/02 16:18:15;;;;;;;29.57;26.50;;;10.50;93.40;;;;;;5111377;28;20502;-76
2023/03/02 16:20:42;;;;;;;27.00;24.47;;;10.40;93.50;;;;;;5111499;28;20495;-75
2023/03/02 16:23:10;;;;;;;26.33;23.70;;;10.40;93.80;;;;;;5111527;28;20498;-75
2023/03/02 16:25:42;;;;;;;27.93;25.23;;;10.30;94.10;;;;;;5111171;28;21009;-76
2023/03/02 16:28:09;;;;;;;26.03;23.23;;;10.20;94.40;;;;;;5111526;28;20449;-75
2023/03/02 16:30:36;;;;;;;27.17;24.33;;;10.20;94.80;;;;;;5111504;28;20445;-76
2023/03/02 16:33:06;;;;;;;27.27;24.67;;;10.10;94.90;;;;;;5111235;28;20485;-75
2023/03/02 16:35:34;;;;;;;26.60;24.20;;;10.00;95.10;;;;;;5111131;28;20453;-75
2023/03/02 16:38:01;;;;;;;27.40;24.43;;;9.90;96.00;;;;;;5111076;28;20453;-75
2023/03/02 16:40:29;;;;;;;28.70;25.70;;;9.90;96.20;;;;;;5111285;28;20845;-75
2023/03/02 16:42:57;;;;;;;26.97;24.17;;;9.80;96.70;;;;;;5111038;28;20448;-76
2023/03/02 16:45:25;;;;;;;29.13;26.50;;;9.70;97.00;;;;;;5110901;28;20457;-75
2023/03/02 16:47:52;;;;;;;27.97;25.23;;;9.60;97.20;;;;;;5110957;28;20846;-75
2023/03/02 16:50:19;;;;;;;30.03;26.80;;;9.50;97.60;;;;;;5110656;28;20449;-75
2023/03/02 16:52:46;;;;;;;26.37;23.77;;;9.40;98.10;;;;;;5110507;28;20518;-75
2023/03/02 16:55:15;;;;;;;28.80;23.90;;;9.40;98.50;;;;;;5110707;28;20449;-74
2023/03/02 16:57:42;;;;;;;25.03;22.60;;;9.20;98.90;;;;;;5110935;28;20540;-75
2023/03/02 17:00:13;;;;;;;28.30;25.50;;;9.20;99.10;;;;;;5110427;28;20441;-75
2023/03/02 17:02:40;;;;;;;27.23;24.60;;;9.10;99.50;;;;;;5110898;27;20969;-75
2023/03/02 17:05:07;;;;;;;27.57;24.67;;;9.10;99.70;;;;;;5110456;28;20449;-74
2023/03/02 17:07:34;;;;;;;26.50;23.70;;;9.10;99.90;;;;;;5110294;28;20512;-77
2023/03/02 17:10:01;;;;;;;26.47;23.70;;;9.10;99.90;;;;;;5109876;28;20485;-75
2023/03/02 17:12:27;;;;;;;28.63;25.60;;;9.20;99.90;;;;;;5110547;28;20607;-75
2023/03/02 17:14:54;;;;;;;28.50;25.50;;;9.30;99.80;;;;;;5110378;28;20859;-75
2023/03/02 17:17:22;;;;;;;28.43;25.70;;;9.40;99.70;;;;;;5110161;28;21087;-75
2023/03/02 17:19:49;;;;;;;29.00;25.57;;;9.50;99.30;;;;;;5110326;28;20828;-75
2023/03/02 17:22:16;;;;;;;28.13;25.00;;;9.50;99.00;;;;;;5110123;28;20551;-75
2023/03/02 17:24:42;;;;;;;29.00;26.13;;;9.50;99.10;;;;;;5110484;28;20441;-76
2023/03/02 17:27:10;;;;;;;28.50;25.80;;;9.40;99.10;;;;;;5110245;28;20562;-75
2023/03/02 17:29:36;;;;;;;29.00;26.20;;;9.40;99.10;;;;;;5110053;28;20449;-74
2023/03/02 17:32:03;;;;;;;26.93;24.20;;;9.40;99.20;;;;;;5110235;28;20886;-75
2023/03/02 17:34:31;;;;;;;26.77;24.00;;;9.30;99.50;;;;;;5110087;28;20525;-74
2023/03/02 17:36:59;;;;;;;28.87;26.03;;;9.20;99.70;;;;;;5110130;28;20448;-74
2023/03/02 17:39:26;;;;;;;28.93;24.10;;;9.20;99.70;;;;;;5109673;28;20472;-74
2023/03/02 17:41:53;;;;;;;31.10;24.97;;;9.20;99.80;;;;;;5109377;28;20442;-74
2023/03/02 17:44:20;;;;;;;27.73;24.60;;;9.20;99.90;;;;;;5109389;28;20453;-73
2023/03/02 17:46:46;;;;;;;28.20;25.23;;;9.10;99.90;;;;;;5109368;28;20449;-74
2023/03/02 17:49:13;;;;;;;27.87;24.10;;;9.10;99.90;;;;;;5109487;28;20445;-74
2023/03/02 17:51:41;;;;;;;28.57;25.13;;;9.10;99.90;;;;;;5109285;28;20477;-75
2023/03/02 17:54:08;;;;;;;28.10;25.50;;;9.20;99.90;;;;;;5109333;28;20812;-74
2023/03/02 17:56:34;;;;;;;28.47;25.03;;;9.20;99.90;;;;;;5109151;28;20561;-75
